createdAt,value
2019-05-23T00:02:05.984Z,7.75
2019-05-23T00:04:44.501Z,5.78
2019-05-23T00:07:21.029Z,6.08
2019-05-23T00:09:56.729Z,8.65
2019-05-23T00:12:47.706Z,7.22
2019-05-23T00:15:29.548Z,5.70
2019-05-23T00:18:04.223Z,4.55
2019-05-23T00:20:38.782Z,5.37
2019-05-23T00:23:14.515Z,7.33
2019-05-23T00:25:49.972Z,4.67
2019-05-23T00:28:25.501Z,4.92
2019-05-23T00:31:12.456Z,5.22
2019-05-23T00:33:46.155Z,5.40
2019-05-23T00:36:20.179Z,4.58
2019-05-23T00:38:56.268Z,4.70
2019-05-23T00:41:33.239Z,5.28
2019-05-23T00:44:08.846Z,3.62
2019-05-23T00:46:44.077Z,7.40
2019-05-23T00:49:19.456Z,3.60
2019-05-23T00:51:54.385Z,3.47
2019-05-23T00:54:28.929Z,3.02
2019-05-23T00:57:02.947Z,5.92
2019-05-23T00:59:37.507Z,3.37
2019-05-23T01:02:12.074Z,3.17
2019-05-23T01:04:46.609Z,6.08
2019-05-23T01:07:21.857Z,3.72
2019-05-23T01:09:55.850Z,3.52
2019-05-23T01:12:29.982Z,3.20
2019-05-23T01:15:04.787Z,2.83
2019-05-23T01:17:39.309Z,4.40
2019-05-23T01:20:14.003Z,4.50
2019-05-23T01:22:49.582Z,3.92
2019-05-23T01:25:26.764Z,5.22
2019-05-23T01:28:01.548Z,7.10
2019-05-23T01:30:41.437Z,3.33
2019-05-23T01:33:17.507Z,3.17
2019-05-23T01:35:52.652Z,4.95
2019-05-23T01:38:27.489Z,4.30
2019-05-23T01:41:02.918Z,3.50
2019-05-23T01:43:38.877Z,4.00
2019-05-23T01:46:14.611Z,3.75
2019-05-23T01:48:49.776Z,6.00
2019-05-23T01:51:25.036Z,4.87
2019-05-23T01:53:59.729Z,3.50
2019-05-23T01:56:34.263Z,4.03
2019-05-23T01:59:10.316Z,3.35
2019-05-23T02:01:44.747Z,7.00
2019-05-23T02:04:19.164Z,3.30
2019-05-23T02:06:53.293Z,4.15
2019-05-23T02:09:27.416Z,3.00
2019-05-23T02:12:02.013Z,3.98
2019-05-23T02:14:35.592Z,4.62
2019-05-23T02:17:11.381Z,4.80
2019-05-23T02:19:46.024Z,4.80
2019-05-23T02:22:19.997Z,3.80
2019-05-23T02:24:54.342Z,4.95
2019-05-23T02:27:28.139Z,5.35
2019-05-23T02:30:03.063Z,5.20
2019-05-23T02:32:37.585Z,4.37
2019-05-23T02:35:12.493Z,4.85
2019-05-23T02:38:07.643Z,3.20
2019-05-23T02:41:00.304Z,3.15
2019-05-23T02:43:35.644Z,5.75
2019-05-23T02:46:16.850Z,6.17
2019-05-23T02:48:52.036Z,5.25
2019-05-23T02:51:33.339Z,4.50
2019-05-23T02:54:11.036Z,6.08
2019-05-23T02:56:46.946Z,4.75
2019-05-23T02:59:39.568Z,4.80
2019-05-23T03:02:48.859Z,5.28
2019-05-23T03:05:26.781Z,4.65
2019-05-23T03:08:01.286Z,5.83
2019-05-23T03:11:15.694Z,5.40
2019-05-23T03:13:50.245Z,5.50
2019-05-23T03:16:25.651Z,6.35
2019-05-23T03:19:04.037Z,6.55
2019-05-23T03:21:37.739Z,4.85
2019-05-23T03:24:12.329Z,4.80
2019-05-23T03:27:13.629Z,4.42
2019-05-23T03:29:47.438Z,4.97
2019-05-23T03:32:40.251Z,5.72
2019-05-23T03:35:32.491Z,4.78
2019-05-23T03:38:08.458Z,8.15
2019-05-23T03:40:41.867Z,6.65
2019-05-23T03:43:16.755Z,7.75
2019-05-23T03:45:53.443Z,9.53
2019-05-23T03:48:30.370Z,11.93
2019-05-23T03:51:03.918Z,6.72
2019-05-23T03:53:39.481Z,8.08
2019-05-23T03:56:14.134Z,8.95
2019-05-23T03:58:48.510Z,9.95
2019-05-23T04:01:24.485Z,9.73
2019-05-23T04:03:59.425Z,9.28
2019-05-23T04:06:33.872Z,7.80
2019-05-23T04:09:08.525Z,10.53
2019-05-23T04:11:42.743Z,10.75
2019-05-23T04:14:16.397Z,11.40
2019-05-23T04:16:51.318Z,8.78
2019-05-23T04:19:25.237Z,10.00
2019-05-23T04:21:59.410Z,9.58
2019-05-23T04:24:33.866Z,11.03
2019-05-23T04:27:07.795Z,10.75
2019-05-23T04:29:42.202Z,12.85
2019-05-23T04:32:17.235Z,10.08
2019-05-23T04:34:51.038Z,11.68
2019-05-23T04:37:25.292Z,10.68
2019-05-23T04:39:58.983Z,10.58
2019-05-23T04:42:32.965Z,8.95
2019-05-23T04:45:06.349Z,10.10
2019-05-23T04:47:41.324Z,8.25
2019-05-23T04:50:15.218Z,12.65
2019-05-23T04:52:49.116Z,7.75
2019-05-23T04:55:23.133Z,6.45
2019-05-23T04:57:56.972Z,7.60
2019-05-23T05:00:32.201Z,7.92
2019-05-23T05:03:08.037Z,6.20
2019-05-23T05:05:41.979Z,6.83
2019-05-23T05:08:15.594Z,7.22
2019-05-23T05:10:50.293Z,5.92
2019-05-23T05:13:25.301Z,6.55
2019-05-23T05:15:59.017Z,7.70
2019-05-23T05:18:33.341Z,6.42
2019-05-23T05:21:06.262Z,5.75
2019-05-23T05:23:41.068Z,6.25
2019-05-23T05:26:22.614Z,5.20
2019-05-23T05:28:56.881Z,6.20
2019-05-23T05:31:31.789Z,5.45
2019-05-23T05:34:05.047Z,5.83
2019-05-23T05:36:38.811Z,5.90
2019-05-23T05:39:13.603Z,5.75
2019-05-23T05:41:48.033Z,4.17
2019-05-23T05:44:22.238Z,5.47
2019-05-23T05:46:56.484Z,6.60
2019-05-23T05:49:30.785Z,3.95
2019-05-23T05:52:06.233Z,6.67
2019-05-23T05:54:39.902Z,4.45
2019-05-23T05:57:13.512Z,6.75
2019-05-23T05:59:46.829Z,5.15
2019-05-23T06:02:20.328Z,4.58
2019-05-23T06:04:53.815Z,5.37
2019-05-23T06:07:32.859Z,5.72
2019-05-23T06:10:09.849Z,5.65
2019-05-23T06:12:43.429Z,6.45
2019-05-23T06:15:18.496Z,8.88
2019-05-23T06:17:52.761Z,7.55
2019-05-23T06:20:27.906Z,5.40
2019-05-23T06:23:03.377Z,5.80
2019-05-23T06:25:37.481Z,6.37
2019-05-23T06:28:12.226Z,6.65
2019-05-23T06:30:46.665Z,6.45
2019-05-23T06:33:23.751Z,7.80
2019-05-23T06:35:58.351Z,9.58
2019-05-23T06:38:33.174Z,8.00
2019-05-23T06:41:08.585Z,6.20
2019-05-23T06:43:43.790Z,6.53
2019-05-23T06:46:18.204Z,7.03
2019-05-23T06:48:52.467Z,8.53
2019-05-23T06:51:27.076Z,6.85
2019-05-23T06:54:00.830Z,5.67
2019-05-23T06:56:33.764Z,4.60
2019-05-23T06:59:06.751Z,6.42
2019-05-23T07:01:40.193Z,6.45
2019-05-23T07:04:13.555Z,6.85
2019-05-23T07:06:46.501Z,8.78
2019-05-23T07:09:22.625Z,8.05
2019-05-23T07:11:59.712Z,9.45
2019-05-23T07:14:33.337Z,8.28
2019-05-23T07:17:08.050Z,7.30
2019-05-23T07:19:41.259Z,6.53
2019-05-23T07:22:18.316Z,8.85
2019-05-23T07:24:57.965Z,8.58
2019-05-23T07:27:30.008Z,12.15
2019-05-23T07:30:04.892Z,9.70
2019-05-23T07:32:39.434Z,9.15
2019-05-23T07:35:13.179Z,10.15
2019-05-23T07:37:47.313Z,10.13
2019-05-23T07:40:21.926Z,15.15
2019-05-23T07:42:56.051Z,10.45
2019-05-23T07:45:39.950Z,11.22
2019-05-23T07:48:14.966Z,13.03
2019-05-23T07:50:48.833Z,10.10
2019-05-23T07:53:32.702Z,10.98
2019-05-23T07:56:07.440Z,9.90
2019-05-23T07:58:41.600Z,9.88
2019-05-23T08:01:17.814Z,13.90
2019-05-23T08:03:54.456Z,13.83
2019-05-23T08:06:29.533Z,17.25
2019-05-23T08:09:05.369Z,16.70
2019-05-23T08:11:39.385Z,17.48
2019-05-23T08:14:13.831Z,15.45
2019-05-23T08:16:47.369Z,12.78
2019-05-23T08:19:21.618Z,11.83
2019-05-23T08:21:54.486Z,10.85
2019-05-23T08:24:27.375Z,12.88
2019-05-23T08:27:02.444Z,13.83
2019-05-23T08:29:35.427Z,12.47
2019-05-23T08:32:07.511Z,14.87
2019-05-23T08:34:42.683Z,12.75
2019-05-23T08:37:15.710Z,15.60
2019-05-23T08:39:49.283Z,16.85
2019-05-23T08:42:23.128Z,17.95
2019-05-23T08:44:56.591Z,21.70
2019-05-23T08:47:29.423Z,17.65
2019-05-23T08:50:04.131Z,21.52
2019-05-23T08:52:37.701Z,21.45
2019-05-23T08:55:22.911Z,18.00
2019-05-23T08:57:58.919Z,21.87
2019-05-23T09:00:35.788Z,18.67
2019-05-23T09:03:11.151Z,24.50
2019-05-23T09:05:45.018Z,17.37
2019-05-23T09:08:20.124Z,15.10
2019-05-23T09:10:54.725Z,12.55
2019-05-23T09:13:28.410Z,13.08
2019-05-23T09:16:02.358Z,14.20
2019-05-23T09:18:36.728Z,11.30
2019-05-23T09:21:10.131Z,11.22
2019-05-23T09:23:42.329Z,10.32
2019-05-23T09:26:15.517Z,12.33
2019-05-23T09:28:48.751Z,8.95
2019-05-23T09:31:22.589Z,9.73
2019-05-23T09:33:55.323Z,11.90
2019-05-23T09:36:28.699Z,13.35
2019-05-23T09:39:02.921Z,16.50
2019-05-23T09:41:37.955Z,12.82
2019-05-23T09:44:11.320Z,11.70
2019-05-23T09:46:44.651Z,13.55
2019-05-23T09:49:18.107Z,11.63
2019-05-23T09:51:55.824Z,13.50
2019-05-23T09:54:27.773Z,14.10
2019-05-23T09:57:01.375Z,12.53
2019-05-23T09:59:35.566Z,12.35
2019-05-23T10:02:09.521Z,13.98
2019-05-23T10:04:43.589Z,17.77
2019-05-23T10:07:17.891Z,15.95
2019-05-23T10:09:51.672Z,17.52
2019-05-23T10:12:25.363Z,19.87
2019-05-23T10:14:59.555Z,21.97
2019-05-23T10:17:33.281Z,17.10
2019-05-23T10:20:06.705Z,17.98
2019-05-23T10:22:40.593Z,14.55
2019-05-23T10:25:14.580Z,13.85
2019-05-23T10:27:48.793Z,16.50
2019-05-23T10:30:24.063Z,14.93
2019-05-23T10:32:57.479Z,16.30
2019-05-23T10:35:32.364Z,11.00
2019-05-23T10:38:05.664Z,12.18
2019-05-23T10:40:39.221Z,12.58
2019-05-23T10:43:14.094Z,15.75
2019-05-23T10:45:47.816Z,9.68
2019-05-23T10:48:22.045Z,13.93
2019-05-23T10:50:56.247Z,11.05
2019-05-23T10:53:29.983Z,17.67
2019-05-23T10:56:03.946Z,13.65
2019-05-23T10:58:38.203Z,14.13
2019-05-23T11:01:13.436Z,20.00
2019-05-23T11:03:47.196Z,21.55
2019-05-23T11:06:21.677Z,21.52
2019-05-23T11:08:55.182Z,23.80
2019-05-23T11:11:29.903Z,24.92
2019-05-23T11:14:08.399Z,23.47
2019-05-23T11:16:41.686Z,25.17
2019-05-23T11:19:15.933Z,25.75
2019-05-23T11:21:49.582Z,23.65
2019-05-23T11:24:23.995Z,24.18
2019-05-23T11:26:57.930Z,26.95
2019-05-23T11:29:32.542Z,25.55
2019-05-23T11:32:07.697Z,24.25
2019-05-23T11:34:41.415Z,24.07
2019-05-23T11:37:15.130Z,22.85
2019-05-23T11:39:50.894Z,23.83
2019-05-23T11:42:26.000Z,20.12
2019-05-23T11:44:59.808Z,20.55
2019-05-23T11:47:34.437Z,22.10
2019-05-23T11:50:06.909Z,20.57
2019-05-23T11:52:40.605Z,21.05
2019-05-23T11:55:13.862Z,28.85
2019-05-23T11:57:48.160Z,22.65
2019-05-23T12:00:30.169Z,25.97
2019-05-23T12:03:04.312Z,19.90
2019-05-23T12:05:36.755Z,26.42
2019-05-23T12:08:09.452Z,23.67
2019-05-23T12:10:42.043Z,26.15
2019-05-23T12:13:15.262Z,18.82
2019-05-23T12:15:51.367Z,19.17
2019-05-23T12:18:24.650Z,23.18
2019-05-23T12:20:59.863Z,29.05
2019-05-23T12:23:32.827Z,23.83
2019-05-23T12:26:06.316Z,24.15
2019-05-23T12:28:38.835Z,23.77
2019-05-23T12:31:11.778Z,21.30
2019-05-23T12:33:44.161Z,22.82
2019-05-23T12:36:17.460Z,25.02
2019-05-23T12:38:50.416Z,25.72
2019-05-23T12:41:23.738Z,19.05
2019-05-23T12:43:55.703Z,24.27
2019-05-23T12:46:29.432Z,21.90
2019-05-23T12:49:09.064Z,18.75
2019-05-23T12:51:41.582Z,20.97
2019-05-23T12:54:14.636Z,23.40
2019-05-23T12:56:49.002Z,21.57
2019-05-23T12:59:20.864Z,19.67
2019-05-23T13:01:54.948Z,22.45
2019-05-23T13:04:27.467Z,21.97
2019-05-23T13:07:00.428Z,25.08
2019-05-23T13:09:32.903Z,19.82
2019-05-23T13:12:06.458Z,20.75
2019-05-23T13:14:39.570Z,16.70
2019-05-23T13:17:12.027Z,19.17
2019-05-23T13:19:44.961Z,16.67
2019-05-23T13:22:18.542Z,17.77
2019-05-23T13:24:53.423Z,30.40
2019-05-23T13:27:26.412Z,22.17
2019-05-23T13:29:59.845Z,20.70
2019-05-23T13:32:32.492Z,22.55
2019-05-23T13:35:05.169Z,21.50
2019-05-23T13:37:52.306Z,19.90
2019-05-23T13:40:13.809Z,18.95
2019-05-23T13:42:47.313Z,17.12
2019-05-23T13:45:19.783Z,17.23
2019-05-23T13:47:53.783Z,15.95
2019-05-23T13:50:26.424Z,16.45
2019-05-23T13:52:58.841Z,23.83
2019-05-23T13:55:32.757Z,18.85
2019-05-23T13:58:06.766Z,21.33
2019-05-23T14:00:40.552Z,20.17
2019-05-23T14:03:14.705Z,20.95
2019-05-23T14:05:48.605Z,19.20
2019-05-23T14:08:21.308Z,22.58
2019-05-23T14:10:54.870Z,18.90
2019-05-23T14:13:28.872Z,17.40
2019-05-23T14:16:03.433Z,18.52
2019-05-23T14:18:47.717Z,15.18
2019-05-23T14:21:22.040Z,21.57
2019-05-23T14:23:56.331Z,17.62
2019-05-23T14:26:32.112Z,16.37
2019-05-23T14:29:07.792Z,18.15
2019-05-23T14:31:47.615Z,15.13
2019-05-23T14:34:20.897Z,15.50
2019-05-23T14:37:09.198Z,15.08
2019-05-23T14:40:10.962Z,13.10
2019-05-23T14:43:11.306Z,17.25
2019-05-23T14:46:06.040Z,16.02
2019-05-23T14:49:07.930Z,19.77
2019-05-23T14:52:03.014Z,14.23
2019-05-23T14:54:41.065Z,20.90
2019-05-23T14:57:15.575Z,17.67
2019-05-23T14:59:49.285Z,16.45
2019-05-23T15:02:24.279Z,14.53
2019-05-23T15:04:58.150Z,15.05
2019-05-23T15:07:31.911Z,14.28
2019-05-23T15:10:05.290Z,16.07
2019-05-23T15:12:38.991Z,12.33
2019-05-23T15:15:12.664Z,14.07
2019-05-23T15:17:46.897Z,12.95
2019-05-23T15:20:21.951Z,18.37
2019-05-23T15:22:59.688Z,11.45
2019-05-23T15:25:31.559Z,11.35
2019-05-23T15:28:05.892Z,9.98
2019-05-23T15:30:40.070Z,10.35
2019-05-23T15:33:14.324Z,10.20
2019-05-23T15:35:48.491Z,9.08
2019-05-23T15:38:22.737Z,11.20
2019-05-23T15:40:56.949Z,13.43
2019-05-23T15:43:31.036Z,10.38
2019-05-23T15:46:05.193Z,10.23
2019-05-23T15:48:38.374Z,10.20
2019-05-23T15:51:13.929Z,10.40
2019-05-23T15:53:54.473Z,9.40
2019-05-23T15:56:56.347Z,9.63
2019-05-23T15:59:55.448Z,7.58
2019-05-23T16:02:33.307Z,10.40
2019-05-23T16:05:08.698Z,6.12
2019-05-23T16:07:42.363Z,5.70
2019-05-23T16:10:17.633Z,7.95
2019-05-23T16:12:51.526Z,6.28
2019-05-23T16:15:25.570Z,9.45
2019-05-23T16:18:00.670Z,5.92
2019-05-23T16:20:34.229Z,5.75
2019-05-23T16:23:08.509Z,10.18
2019-05-23T16:25:43.136Z,9.88
2019-05-23T16:28:16.420Z,9.98
2019-05-23T16:30:50.625Z,4.67
2019-05-23T16:33:24.008Z,6.20
2019-05-23T16:35:58.171Z,6.70
2019-05-23T16:38:32.348Z,5.72
2019-05-23T16:41:06.544Z,9.68
2019-05-23T16:43:39.755Z,6.00
2019-05-23T16:46:13.490Z,5.15
2019-05-23T16:48:47.385Z,6.87
2019-05-23T16:51:21.123Z,8.63
2019-05-23T16:53:55.473Z,8.05
2019-05-23T16:56:36.815Z,12.90
2019-05-23T16:59:41.408Z,8.60
2019-05-23T17:02:48.799Z,8.58
2019-05-23T17:05:39.823Z,7.85
2019-05-23T17:08:41.296Z,10.82
2019-05-23T17:11:50.979Z,9.50
2019-05-23T17:14:39.391Z,13.13
2019-05-23T17:17:56.672Z,7.95
2019-05-23T17:20:30.498Z,6.95
2019-05-23T17:23:28.450Z,10.72
2019-05-23T17:26:08.060Z,10.35
2019-05-23T17:28:44.134Z,9.10
2019-05-23T17:31:19.990Z,8.43
2019-05-23T17:33:52.797Z,5.20
2019-05-23T17:36:26.690Z,15.65
2019-05-23T17:38:59.644Z,5.65
2019-05-23T17:41:32.408Z,11.40
2019-05-23T17:44:04.955Z,5.55
2019-05-23T17:46:37.945Z,6.37
2019-05-23T17:49:11.184Z,8.20
2019-05-23T17:51:44.186Z,7.90
2019-05-23T17:54:18.689Z,11.43
2019-05-23T17:56:52.371Z,7.28
2019-05-23T17:59:25.219Z,8.15
2019-05-23T18:01:57.768Z,8.08
2019-05-23T18:04:30.821Z,10.48
2019-05-23T18:07:02.770Z,6.45
2019-05-23T18:09:36.251Z,7.83
2019-05-23T18:12:09.516Z,8.28
2019-05-23T18:14:42.839Z,8.90
2019-05-23T18:17:15.329Z,10.13
2019-05-23T18:19:47.384Z,8.50
2019-05-23T18:22:21.053Z,7.15
2019-05-23T18:24:59.489Z,8.33
2019-05-23T18:27:29.356Z,8.50
2019-05-23T18:30:04.540Z,8.45
2019-05-23T18:32:37.935Z,8.28
2019-05-23T18:35:12.757Z,11.75
2019-05-23T18:37:46.581Z,7.47
2019-05-23T18:40:21.217Z,7.65
2019-05-23T18:42:54.558Z,12.73
2019-05-23T18:45:27.765Z,9.50
2019-05-23T18:48:02.338Z,14.98
2019-05-23T18:50:36.252Z,11.55
2019-05-23T18:53:10.641Z,8.60
2019-05-23T18:55:45.084Z,10.10
2019-05-23T18:58:19.975Z,8.08
2019-05-23T19:01:14.684Z,10.63
2019-05-23T19:03:48.512Z,9.38
2019-05-23T19:06:21.866Z,9.88
2019-05-23T19:08:55.122Z,8.73
2019-05-23T19:11:28.905Z,7.00
2019-05-23T19:14:04.858Z,12.25
2019-05-23T19:16:39.457Z,11.05
2019-05-23T19:19:14.221Z,8.08
2019-05-23T19:21:48.296Z,7.03
2019-05-23T19:24:21.239Z,9.38
2019-05-23T19:26:55.446Z,11.57
2019-05-23T19:29:29.370Z,6.85
2019-05-23T19:32:02.603Z,10.45
2019-05-23T19:34:36.086Z,7.20
2019-05-23T19:37:10.885Z,8.20
2019-05-23T19:39:45.619Z,10.90
2019-05-23T19:42:19.065Z,10.18
2019-05-23T19:44:52.538Z,8.65
2019-05-23T19:47:26.132Z,9.43
2019-05-23T19:49:59.063Z,11.15
2019-05-23T19:52:31.532Z,7.40
2019-05-23T19:55:06.187Z,9.55
2019-05-23T19:57:38.740Z,7.92
2019-05-23T20:00:32.190Z,7.22
2019-05-23T20:03:05.256Z,15.93
2019-05-23T20:05:40.038Z,8.78
2019-05-23T20:08:13.330Z,9.58
2019-05-23T20:10:46.332Z,8.63
2019-05-23T20:13:19.982Z,7.78
2019-05-23T20:15:52.785Z,7.60
2019-05-23T20:18:25.025Z,10.58
2019-05-23T20:20:58.172Z,8.63
2019-05-23T20:23:30.218Z,10.72
2019-05-23T20:26:07.480Z,8.40
2019-05-23T20:28:40.006Z,8.55
2019-05-23T20:31:12.569Z,8.70
2019-05-23T20:33:44.996Z,8.90
2019-05-23T20:36:17.443Z,6.37
2019-05-23T20:38:51.451Z,15.53
2019-05-23T20:41:24.096Z,10.28
2019-05-23T20:43:56.990Z,9.03
2019-05-23T20:46:29.801Z,8.53
2019-05-23T20:49:01.699Z,10.05
2019-05-23T20:51:35.472Z,10.80
2019-05-23T20:54:08.384Z,12.40
2019-05-23T20:56:41.908Z,13.48
2019-05-23T20:59:16.288Z,9.23
2019-05-23T21:01:50.534Z,11.90
2019-05-23T21:04:23.391Z,11.53
2019-05-23T21:06:57.737Z,8.08
2019-05-23T21:09:29.767Z,7.50
2019-05-23T21:12:04.163Z,9.95
2019-05-23T21:14:36.947Z,8.90
2019-05-23T21:17:10.302Z,7.85
2019-05-23T21:19:44.458Z,8.00
2019-05-23T21:22:17.000Z,9.38
2019-05-23T21:24:49.016Z,9.10
2019-05-23T21:27:21.937Z,10.18
2019-05-23T21:29:54.790Z,10.00
2019-05-23T21:32:27.972Z,10.70
2019-05-23T21:35:00.761Z,10.45
2019-05-23T21:37:34.450Z,9.25
2019-05-23T21:40:07.977Z,6.53
2019-05-23T21:42:47.709Z,8.83
2019-05-23T21:45:15.386Z,9.98
2019-05-23T21:47:48.823Z,7.87
2019-05-23T21:50:21.846Z,6.67
2019-05-23T21:52:55.224Z,8.68
2019-05-23T21:55:41.084Z,8.85
2019-05-23T21:58:14.931Z,8.18
2019-05-23T22:01:41.971Z,8.28
2019-05-23T22:04:34.134Z,10.10
2019-05-23T22:07:11.551Z,10.65
2019-05-23T22:09:44.951Z,12.85
2019-05-23T22:12:19.127Z,9.35
2019-05-23T22:14:52.882Z,8.50
2019-05-23T22:17:28.233Z,7.65
2019-05-23T22:20:02.630Z,8.53
2019-05-23T22:22:36.720Z,9.00
2019-05-23T22:25:09.703Z,10.40
2019-05-23T22:27:44.868Z,8.33
2019-05-23T22:30:19.263Z,10.53
2019-05-23T22:32:54.586Z,8.20
2019-05-23T22:35:28.955Z,8.83
2019-05-23T22:38:03.053Z,12.95
2019-05-23T22:40:38.665Z,11.33
2019-05-23T22:43:20.962Z,12.15
2019-05-23T22:45:49.863Z,10.75
2019-05-23T22:48:24.234Z,10.00
2019-05-23T22:50:57.932Z,9.73
2019-05-23T22:53:31.998Z,8.35
2019-05-23T22:56:06.267Z,9.58
2019-05-23T22:58:39.970Z,8.48
2019-05-23T23:01:13.625Z,10.80
2019-05-23T23:03:47.553Z,7.83
2019-05-23T23:06:21.740Z,9.43
2019-05-23T23:08:56.010Z,9.20
2019-05-23T23:11:29.276Z,9.95
2019-05-23T23:14:03.114Z,7.80
2019-05-23T23:16:36.887Z,11.20
2019-05-23T23:19:10.313Z,9.88
2019-05-23T23:21:44.387Z,8.20
2019-05-23T23:24:18.618Z,8.55
2019-05-23T23:26:53.044Z,8.95
2019-05-23T23:29:26.671Z,8.38
2019-05-23T23:32:03.771Z,14.40
2019-05-23T23:34:35.997Z,10.78
2019-05-23T23:37:09.603Z,9.80
2019-05-23T23:39:43.633Z,9.08
2019-05-23T23:42:17.738Z,8.33
2019-05-23T23:44:49.685Z,9.85
2019-05-23T23:47:40.289Z,9.25
2019-05-23T23:50:30.411Z,10.45
2019-05-23T23:53:21.489Z,13.05
2019-05-23T23:56:12.499Z,7.83
2019-05-23T23:58:44.384Z,13.40
